createdAt,value
2023-01-20T00:01:48.583Z,5.36
2023-01-20T00:04:21.441Z,5.42
2023-01-20T00:06:50.034Z,5.48
2023-01-20T00:09:19.501Z,5.53
2023-01-20T00:11:48.418Z,5.56
2023-01-20T00:14:17.600Z,5.61
2023-01-20T00:16:46.743Z,5.65
2023-01-20T00:19:16.821Z,5.71
2023-01-20T00:21:46.021Z,5.74
2023-01-20T00:24:15.990Z,5.74
2023-01-20T00:26:45.149Z,5.74
2023-01-20T00:29:14.495Z,5.77
2023-01-20T00:31:43.328Z,5.75
2023-01-20T00:34:12.247Z,5.70
2023-01-20T00:36:41.554Z,5.61
2023-01-20T00:39:10.481Z,5.54
2023-01-20T00:41:40.020Z,5.51
2023-01-20T00:44:09.062Z,5.43
2023-01-20T00:46:37.962Z,5.30
2023-01-20T00:49:06.773Z,5.18
2023-01-20T00:51:35.640Z,5.06
2023-01-20T00:54:04.858Z,4.88
2023-01-20T00:56:34.539Z,4.76
2023-01-20T00:59:03.828Z,4.63
2023-01-20T01:01:33.289Z,4.54
2023-01-20T01:04:02.932Z,4.47
2023-01-20T01:06:32.407Z,4.42
2023-01-20T01:09:02.177Z,4.40
2023-01-20T01:11:32.404Z,4.37
2023-01-20T01:14:01.484Z,4.30
2023-01-20T01:16:30.194Z,4.31
2023-01-20T01:18:59.217Z,4.35
2023-01-20T01:21:28.338Z,4.39
2023-01-20T01:23:57.653Z,4.36
2023-01-20T01:26:26.804Z,4.32
2023-01-20T01:28:55.369Z,4.29
2023-01-20T01:31:24.859Z,4.30
2023-01-20T01:33:53.846Z,4.31
2023-01-20T01:36:22.611Z,4.27
2023-01-20T01:38:58.898Z,4.25
2023-01-20T01:41:28.431Z,4.26
2023-01-20T01:44:16.405Z,4.30
2023-01-20T01:46:45.271Z,4.30
2023-01-20T01:49:23.343Z,4.29
2023-01-20T01:52:00.252Z,4.21
2023-01-20T01:54:38.864Z,4.11
2023-01-20T01:57:08.308Z,4.03
2023-01-20T01:59:39.572Z,3.96
2023-01-20T02:02:08.488Z,3.80
2023-01-20T02:04:39.353Z,3.66
2023-01-20T02:07:16.821Z,3.59
2023-01-20T02:09:45.550Z,3.56
2023-01-20T02:12:18.880Z,3.64
2023-01-20T02:14:54.541Z,3.70
2023-01-20T02:17:47.569Z,3.70
2023-01-20T02:20:21.918Z,3.66
2023-01-20T02:22:53.753Z,3.70
2023-01-20T02:25:44.514Z,3.73
2023-01-20T02:28:35.005Z,3.65
2023-01-20T02:31:22.298Z,3.50
2023-01-20T02:34:41.180Z,3.33
2023-01-20T02:37:09.874Z,3.21
2023-01-20T02:39:49.319Z,3.28
2023-01-20T02:42:21.235Z,3.26
2023-01-20T02:45:08.012Z,3.20
2023-01-20T02:47:51.627Z,3.14
2023-01-20T02:50:31.700Z,3.10
2023-01-20T02:53:04.510Z,3.10
2023-01-20T02:55:46.314Z,3.11
2023-01-20T02:58:46.074Z,3.03
2023-01-20T03:01:21.206Z,2.88
2023-01-20T03:03:54.716Z,2.88
2023-01-20T03:06:26.436Z,2.94
2023-01-20T03:08:58.545Z,3.01
2023-01-20T03:11:29.607Z,3.02
2023-01-20T03:14:05.950Z,2.99
2023-01-20T03:16:34.916Z,3.00
2023-01-20T03:19:04.743Z,2.99
2023-01-20T03:21:34.713Z,3.03
2023-01-20T03:24:05.296Z,3.08
2023-01-20T03:26:34.859Z,3.11
2023-01-20T03:29:07.144Z,3.20
2023-01-20T03:31:41.982Z,3.25
2023-01-20T03:34:16.351Z,3.35
2023-01-20T03:36:46.600Z,3.44
2023-01-20T03:39:16.416Z,3.47
2023-01-20T03:42:07.927Z,3.51
2023-01-20T03:44:58.528Z,3.56
2023-01-20T03:47:45.234Z,3.67
2023-01-20T03:50:46.482Z,3.78
2023-01-20T03:53:35.321Z,3.77
2023-01-20T03:56:13.681Z,3.74
2023-01-20T03:58:47.603Z,3.72
2023-01-20T04:01:19.768Z,3.67
2023-01-20T04:03:53.955Z,3.59
2023-01-20T04:06:26.671Z,3.54
2023-01-20T04:09:02.033Z,3.52
2023-01-20T04:11:30.769Z,3.49
2023-01-20T04:14:00.161Z,3.52
2023-01-20T04:16:29.197Z,3.48
2023-01-20T04:18:58.267Z,3.47
2023-01-20T04:21:44.877Z,3.50
2023-01-20T04:24:29.068Z,3.52
2023-01-20T04:26:57.904Z,3.53
2023-01-20T04:29:26.856Z,3.58
2023-01-20T04:32:01.169Z,3.59
2023-01-20T04:34:31.654Z,3.60
2023-01-20T04:37:00.691Z,3.67
2023-01-20T04:39:29.635Z,3.75
2023-01-20T04:41:58.842Z,3.84
2023-01-20T04:44:28.075Z,3.83
2023-01-20T04:46:59.517Z,3.79
2023-01-20T04:49:28.683Z,3.79
2023-01-20T04:51:57.721Z,3.79
2023-01-20T04:54:26.565Z,3.77
2023-01-20T04:56:55.664Z,3.75
2023-01-20T04:59:24.562Z,3.76
2023-01-20T05:01:53.700Z,3.80
2023-01-20T05:04:23.232Z,3.88
2023-01-20T05:06:52.102Z,3.90
2023-01-20T05:09:21.657Z,3.85
2023-01-20T05:11:50.403Z,3.79
2023-01-20T05:14:19.201Z,3.81
2023-01-20T05:16:47.894Z,3.80
2023-01-20T05:19:17.153Z,3.77
2023-01-20T05:21:46.172Z,3.69
2023-01-20T05:24:15.366Z,3.62
2023-01-20T05:26:44.421Z,3.63
2023-01-20T05:29:13.627Z,3.69
2023-01-20T05:31:43.901Z,3.75
2023-01-20T05:34:13.801Z,3.77
2023-01-20T05:36:43.637Z,3.74
2023-01-20T05:39:13.268Z,3.65
2023-01-20T05:41:42.228Z,3.50
2023-01-20T05:44:11.408Z,3.45
2023-01-20T05:46:40.510Z,3.46
2023-01-20T05:49:13.030Z,3.43
2023-01-20T05:51:42.139Z,3.37
2023-01-20T05:54:11.301Z,3.34
2023-01-20T05:56:40.243Z,3.41
2023-01-20T05:59:10.208Z,3.48
2023-01-20T06:01:39.182Z,3.51
2023-01-20T06:04:08.696Z,3.50
2023-01-20T06:06:38.578Z,3.56
2023-01-20T06:09:08.165Z,3.63
2023-01-20T06:11:37.324Z,3.68
2023-01-20T06:14:06.930Z,3.68
2023-01-20T06:16:36.967Z,3.65
2023-01-20T06:19:06.905Z,3.70
2023-01-20T06:21:36.191Z,3.79
2023-01-20T06:24:06.721Z,3.86
2023-01-20T06:26:36.061Z,3.88
2023-01-20T06:29:04.718Z,3.89
2023-01-20T06:31:33.732Z,3.92
2023-01-20T06:34:02.699Z,3.98
2023-01-20T06:36:31.750Z,4.06
2023-01-20T06:39:01.041Z,4.11
2023-01-20T06:41:30.455Z,4.14
2023-01-20T06:43:59.661Z,4.19
2023-01-20T06:46:29.394Z,4.25
2023-01-20T06:49:00.992Z,4.26
2023-01-20T06:51:31.482Z,4.19
2023-01-20T06:54:00.682Z,4.15
2023-01-20T06:56:29.528Z,4.17
2023-01-20T06:58:58.551Z,4.27
2023-01-20T07:01:30.219Z,4.35
2023-01-20T07:03:59.611Z,4.39
2023-01-20T07:06:35.132Z,4.40
2023-01-20T07:09:04.643Z,4.41
2023-01-20T07:11:35.489Z,4.45
2023-01-20T07:14:06.134Z,4.55
2023-01-20T07:16:35.541Z,5.07
2023-01-20T07:19:04.793Z,6.64
2023-01-20T07:21:33.809Z,8.23
2023-01-20T07:24:03.215Z,9.52
2023-01-20T07:26:33.297Z,10.61
2023-01-20T07:29:03.005Z,11.43
2023-01-20T07:31:32.293Z,12.22
2023-01-20T07:34:01.261Z,12.73
2023-01-20T07:36:30.643Z,13.66
2023-01-20T07:38:59.627Z,13.76
2023-01-20T07:41:28.423Z,13.13
2023-01-20T07:43:57.429Z,13.67
2023-01-20T07:46:26.607Z,14.68
2023-01-20T07:48:56.798Z,15.06
2023-01-20T07:51:26.674Z,15.53
2023-01-20T07:53:55.373Z,15.21
2023-01-20T07:56:28.113Z,13.92
2023-01-20T07:58:58.515Z,12.97
2023-01-20T08:01:30.748Z,12.19
2023-01-20T08:04:03.199Z,11.49
2023-01-20T08:06:32.018Z,11.03
2023-01-20T08:09:02.741Z,10.90
2023-01-20T08:11:35.155Z,11.12
2023-01-20T08:14:04.251Z,11.67
2023-01-20T08:16:33.834Z,12.41
2023-01-20T08:19:02.994Z,12.88
2023-01-20T08:21:33.436Z,12.71
2023-01-20T08:24:07.593Z,12.98
2023-01-20T08:26:36.932Z,13.52
2023-01-20T08:29:09.888Z,13.82
2023-01-20T08:31:39.560Z,13.29
2023-01-20T08:34:09.366Z,13.35
2023-01-20T08:36:47.123Z,13.82
2023-01-20T08:39:19.421Z,13.92
2023-01-20T08:41:49.072Z,14.06
2023-01-20T08:44:20.949Z,14.32
2023-01-20T08:46:52.998Z,14.43
2023-01-20T08:49:23.836Z,14.51
2023-01-20T08:51:53.169Z,14.67
2023-01-20T08:54:24.154Z,14.66
2023-01-20T08:56:54.057Z,14.99
2023-01-20T08:59:24.268Z,15.31
2023-01-20T09:01:53.504Z,15.76
2023-01-20T09:04:23.055Z,16.32
2023-01-20T09:06:53.203Z,16.76
2023-01-20T09:09:24.031Z,17.32
2023-01-20T09:11:53.293Z,17.56
2023-01-20T09:14:24.858Z,17.88
2023-01-20T09:16:53.961Z,17.90
2023-01-20T09:19:23.220Z,18.23
2023-01-20T09:21:52.340Z,18.25
2023-01-20T09:24:21.457Z,18.20
2023-01-20T09:26:52.367Z,17.84
2023-01-20T09:29:21.656Z,17.84
2023-01-20T09:31:54.523Z,17.82
2023-01-20T09:34:24.996Z,18.00
2023-01-20T09:36:59.293Z,18.27
2023-01-20T09:39:46.963Z,18.61
2023-01-20T09:42:51.563Z,18.93
2023-01-20T09:45:32.602Z,18.78
2023-01-20T09:48:40.372Z,19.09
2023-01-20T09:51:39.796Z,19.17
2023-01-20T09:54:23.781Z,18.76
2023-01-20T09:56:57.297Z,18.78
2023-01-20T09:59:35.238Z,18.67
2023-01-20T10:02:15.219Z,18.27
2023-01-20T10:04:51.312Z,17.72
2023-01-20T10:07:36.157Z,17.15
2023-01-20T10:10:21.824Z,16.49
2023-01-20T10:13:03.759Z,15.59
2023-01-20T10:15:38.493Z,15.19
2023-01-20T10:18:35.286Z,14.97
2023-01-20T10:21:20.961Z,14.55
2023-01-20T10:23:57.372Z,14.53
2023-01-20T10:26:49.869Z,14.73
2023-01-20T10:29:37.716Z,14.72
2023-01-20T10:32:33.819Z,14.82
2023-01-20T10:35:19.756Z,14.75
2023-01-20T10:37:48.773Z,14.53
2023-01-20T10:40:35.137Z,14.41
2023-01-20T10:43:31.000Z,13.93
2023-01-20T10:46:12.617Z,13.55
2023-01-20T10:48:51.208Z,13.34
2023-01-20T10:51:35.116Z,13.05
2023-01-20T10:54:31.156Z,12.88
2023-01-20T10:57:04.791Z,12.57
2023-01-20T10:59:45.503Z,12.49
2023-01-20T11:02:27.643Z,12.18
2023-01-20T11:05:03.817Z,11.91
2023-01-20T11:07:35.017Z,11.56
2023-01-20T11:10:24.896Z,11.35
2023-01-20T11:12:57.289Z,11.40
2023-01-20T11:15:34.035Z,11.52
2023-01-20T11:18:15.596Z,11.53
2023-01-20T11:21:05.116Z,11.65
2023-01-20T11:23:40.274Z,11.82
2023-01-20T11:26:21.649Z,12.00
2023-01-20T11:28:59.931Z,12.13
2023-01-20T11:31:41.392Z,12.24
2023-01-20T11:34:26.354Z,12.38
2023-01-20T11:37:10.690Z,12.32
2023-01-20T11:39:54.643Z,12.30
2023-01-20T11:42:26.554Z,12.09
2023-01-20T11:45:15.366Z,12.01
2023-01-20T11:48:01.053Z,11.89
2023-01-20T11:50:35.843Z,11.81
2023-01-20T11:53:19.972Z,11.82
2023-01-20T11:56:20.407Z,11.71
2023-01-20T11:58:51.127Z,11.65
2023-01-20T12:01:31.522Z,11.57
2023-01-20T12:04:22.218Z,11.55
2023-01-20T12:07:03.310Z,11.48
2023-01-20T12:09:44.475Z,11.48
2023-01-20T12:12:45.650Z,11.31
2023-01-20T12:15:20.051Z,11.08
2023-01-20T12:18:22.769Z,11.06
2023-01-20T12:21:00.504Z,10.85
2023-01-20T12:23:30.952Z,10.85
2023-01-20T12:26:04.848Z,10.81
2023-01-20T12:28:53.007Z,10.90
2023-01-20T12:31:26.728Z,10.88
2023-01-20T12:34:06.272Z,10.96
2023-01-20T12:37:12.683Z,10.97
2023-01-20T12:39:57.115Z,10.92
2023-01-20T12:42:45.031Z,11.01
2023-01-20T12:45:28.096Z,10.99
2023-01-20T12:48:24.471Z,11.08
2023-01-20T12:51:25.872Z,10.97
2023-01-20T12:54:05.578Z,11.00
2023-01-20T12:57:01.897Z,11.11
2023-01-20T13:00:09.194Z,11.10
2023-01-20T13:03:16.216Z,10.87
2023-01-20T13:05:58.115Z,10.80
2023-01-20T13:08:37.062Z,10.65
2023-01-20T13:11:31.907Z,10.73
2023-01-20T13:14:07.858Z,10.71
2023-01-20T13:17:08.964Z,10.65
2023-01-20T13:19:48.588Z,10.55
2023-01-20T13:22:23.992Z,10.50
2023-01-20T13:24:58.699Z,10.66
2023-01-20T13:27:38.236Z,10.64
2023-01-20T13:30:08.925Z,10.76
2023-01-20T13:32:45.925Z,10.95
2023-01-20T13:35:18.499Z,10.98
2023-01-20T13:37:57.638Z,10.84
2023-01-20T13:40:33.597Z,11.02
2023-01-20T13:43:04.258Z,11.29
2023-01-20T13:45:33.539Z,11.62
2023-01-20T13:48:12.578Z,11.88
2023-01-20T13:50:44.315Z,11.96
2023-01-20T13:53:23.451Z,12.00
2023-01-20T13:56:01.608Z,12.22
2023-01-20T13:58:36.837Z,12.13
2023-01-20T14:01:11.243Z,12.33
2023-01-20T14:03:41.742Z,12.75
2023-01-20T14:06:12.129Z,13.29
2023-01-20T14:08:47.127Z,13.32
2023-01-20T14:11:19.792Z,13.67
2023-01-20T14:14:08.944Z,13.90
2023-01-20T14:16:42.288Z,13.97
2023-01-20T14:19:28.830Z,14.22
2023-01-20T14:22:05.002Z,13.79
2023-01-20T14:24:49.382Z,13.55
2023-01-20T14:27:30.840Z,12.99
2023-01-20T14:30:16.298Z,12.33
2023-01-20T14:32:46.792Z,11.73
2023-01-20T14:35:29.314Z,11.35
2023-01-20T14:38:00.648Z,11.22
2023-01-20T14:40:36.296Z,10.93
2023-01-20T14:43:21.000Z,10.87
2023-01-20T14:45:54.288Z,10.65
2023-01-20T14:48:34.659Z,10.33
2023-01-20T14:51:07.132Z,10.19
2023-01-20T14:53:37.802Z,10.09
2023-01-20T14:56:21.337Z,9.96
2023-01-20T14:58:55.626Z,9.87
2023-01-20T15:01:27.202Z,9.82
2023-01-20T15:03:59.516Z,9.60
2023-01-20T15:06:29.020Z,9.49
2023-01-20T15:09:06.546Z,9.34
2023-01-20T15:11:37.272Z,9.09
2023-01-20T15:14:11.371Z,9.12
2023-01-20T15:16:50.471Z,8.89
2023-01-20T15:19:30.731Z,8.73
2023-01-20T15:22:20.045Z,8.55
2023-01-20T15:24:50.544Z,8.33
2023-01-20T15:27:24.670Z,8.17
2023-01-20T15:30:16.629Z,8.05
2023-01-20T15:32:49.388Z,7.94
2023-01-20T15:35:23.393Z,7.81
2023-01-20T15:37:54.686Z,7.67
2023-01-20T15:40:25.610Z,7.55
2023-01-20T15:42:55.459Z,7.42
2023-01-20T15:45:26.325Z,7.27
2023-01-20T15:47:56.782Z,7.23
2023-01-20T15:50:27.512Z,7.15
2023-01-20T15:52:57.489Z,7.06
2023-01-20T15:55:26.782Z,6.99
2023-01-20T15:57:56.194Z,6.88
2023-01-20T16:00:26.181Z,6.87
2023-01-20T16:02:55.633Z,6.76
2023-01-20T16:05:25.585Z,6.69
2023-01-20T16:07:54.656Z,6.61
2023-01-20T16:10:24.341Z,6.48
2023-01-20T16:12:53.822Z,6.38
2023-01-20T16:15:24.656Z,6.28
2023-01-20T16:17:55.267Z,6.26
2023-01-20T16:20:26.201Z,6.24
2023-01-20T16:22:57.313Z,6.17
2023-01-20T16:25:27.077Z,6.00
2023-01-20T16:27:56.444Z,5.99
2023-01-20T16:30:26.411Z,5.97
2023-01-20T16:32:56.813Z,5.90
2023-01-20T16:35:25.884Z,5.79
2023-01-20T16:37:55.561Z,5.75
2023-01-20T16:40:25.309Z,5.72
2023-01-20T16:42:58.085Z,5.71
2023-01-20T16:45:29.544Z,5.59
2023-01-20T16:47:59.232Z,5.55
2023-01-20T16:50:29.033Z,5.46
2023-01-20T16:52:59.309Z,5.45
2023-01-20T16:55:28.748Z,5.42
2023-01-20T16:57:58.229Z,5.41
2023-01-20T17:00:27.882Z,5.47
2023-01-20T17:02:57.722Z,5.52
2023-01-20T17:05:28.969Z,5.51
2023-01-20T17:07:58.858Z,5.55
2023-01-20T17:10:31.450Z,5.56
2023-01-20T17:13:01.805Z,5.49
2023-01-20T17:15:31.996Z,5.48
2023-01-20T17:18:01.608Z,5.42
2023-01-20T17:20:32.696Z,5.37
2023-01-20T17:23:02.318Z,5.36
2023-01-20T17:25:32.473Z,5.40
2023-01-20T17:28:02.102Z,5.43
2023-01-20T17:30:32.173Z,5.42
2023-01-20T17:33:02.820Z,5.40
2023-01-20T17:35:34.197Z,5.35
2023-01-20T17:38:04.362Z,5.36
2023-01-20T17:40:34.745Z,5.38
2023-01-20T17:43:06.205Z,5.38
2023-01-20T17:45:35.931Z,5.32
2023-01-20T17:48:06.098Z,5.37
2023-01-20T17:50:36.362Z,5.42
2023-01-20T17:53:06.792Z,5.38
2023-01-20T17:55:36.335Z,5.34
2023-01-20T17:58:05.466Z,5.29
2023-01-20T18:00:35.782Z,5.24
2023-01-20T18:03:06.327Z,5.25
2023-01-20T18:05:36.522Z,5.31
2023-01-20T18:08:06.350Z,5.22
2023-01-20T18:10:35.659Z,5.20
2023-01-20T18:13:05.872Z,5.14
2023-01-20T18:15:37.287Z,5.09
2023-01-20T18:18:06.863Z,5.10
2023-01-20T18:20:37.550Z,5.10
2023-01-20T18:23:07.580Z,5.11
2023-01-20T18:25:39.369Z,5.10
2023-01-20T18:28:09.363Z,5.08
2023-01-20T18:30:39.713Z,4.99
2023-01-20T18:33:09.239Z,4.98
2023-01-20T18:35:38.860Z,5.06
2023-01-20T18:38:10.243Z,5.08
2023-01-20T18:40:41.513Z,5.10
2023-01-20T18:43:12.546Z,5.09
2023-01-20T18:45:42.609Z,5.03
2023-01-20T18:48:12.857Z,5.09
2023-01-20T18:50:44.023Z,5.13
2023-01-20T18:53:15.724Z,5.16
2023-01-20T18:55:46.141Z,5.20
2023-01-20T18:58:18.681Z,5.24
2023-01-20T19:00:48.418Z,5.31
2023-01-20T19:03:18.538Z,5.35
2023-01-20T19:05:48.830Z,5.40
2023-01-20T19:08:18.393Z,5.40
2023-01-20T19:10:47.337Z,5.29
2023-01-20T19:13:18.307Z,5.28
2023-01-20T19:15:48.376Z,5.29
2023-01-20T19:18:17.747Z,5.28
2023-01-20T19:20:47.970Z,5.30
2023-01-20T19:23:17.940Z,5.23
2023-01-20T19:25:49.575Z,5.23
2023-01-20T19:28:21.293Z,5.14
2023-01-20T19:30:52.720Z,5.15
2023-01-20T19:33:23.898Z,5.20
2023-01-20T19:36:00.057Z,5.17
2023-01-20T19:38:31.155Z,5.19
2023-01-20T19:41:14.087Z,5.22
2023-01-20T19:43:44.554Z,5.25
2023-01-20T19:46:20.066Z,5.24
2023-01-20T19:48:52.145Z,5.21
2023-01-20T19:51:24.724Z,5.21
2023-01-20T19:53:59.132Z,5.30
2023-01-20T19:56:33.666Z,5.37
2023-01-20T19:59:06.611Z,5.36
2023-01-20T20:01:37.717Z,5.32
2023-01-20T20:04:11.143Z,5.38
2023-01-20T20:06:47.802Z,5.40
2023-01-20T20:09:20.852Z,5.44
2023-01-20T20:11:51.231Z,5.49
2023-01-20T20:14:23.634Z,5.51
2023-01-20T20:16:53.148Z,5.53
2023-01-20T20:19:22.408Z,5.53
2023-01-20T20:21:52.707Z,5.53
2023-01-20T20:24:22.825Z,5.54
2023-01-20T20:26:53.139Z,5.51
2023-01-20T20:29:23.863Z,5.50
2023-01-20T20:31:55.438Z,5.53
2023-01-20T20:34:26.499Z,5.52
2023-01-20T20:36:56.546Z,5.49
2023-01-20T20:39:28.083Z,5.48
2023-01-20T20:41:58.473Z,5.48
2023-01-20T20:44:28.856Z,5.51
2023-01-20T20:46:58.731Z,5.57
2023-01-20T20:49:31.859Z,5.50
2023-01-20T20:52:01.699Z,5.46
2023-01-20T20:54:32.734Z,5.44
2023-01-20T20:57:04.358Z,5.46
2023-01-20T20:59:34.488Z,5.53
2023-01-20T21:02:05.237Z,5.53
2023-01-20T21:04:36.216Z,5.47
2023-01-20T21:07:06.756Z,5.45
2023-01-20T21:09:36.395Z,5.43
2023-01-20T21:12:06.156Z,5.51
2023-01-20T21:14:35.531Z,5.52
2023-01-20T21:17:05.527Z,5.47
2023-01-20T21:19:35.205Z,5.41
2023-01-20T21:22:05.049Z,5.43
2023-01-20T21:24:34.639Z,5.43
2023-01-20T21:27:05.395Z,5.42
2023-01-20T21:29:36.747Z,5.43
2023-01-20T21:32:07.071Z,5.42
2023-01-20T21:34:37.973Z,5.39
2023-01-20T21:37:08.982Z,5.38
2023-01-20T21:39:38.376Z,5.31
2023-01-20T21:42:09.390Z,5.34
2023-01-20T21:44:38.539Z,5.29
2023-01-20T21:47:09.149Z,5.28
2023-01-20T21:49:57.405Z,5.31
2023-01-20T21:52:42.390Z,5.29
2023-01-20T21:55:20.108Z,5.20
2023-01-20T21:57:51.549Z,5.16
2023-01-20T22:00:23.572Z,5.09
2023-01-20T22:02:53.867Z,5.05
2023-01-20T22:05:23.688Z,5.10
2023-01-20T22:07:53.502Z,5.11
2023-01-20T22:10:24.755Z,5.15
2023-01-20T22:12:54.373Z,5.18
2023-01-20T22:15:24.571Z,5.14
2023-01-20T22:17:54.283Z,5.13
2023-01-20T22:20:23.968Z,5.12
2023-01-20T22:22:53.053Z,5.10
2023-01-20T22:25:22.523Z,5.08
2023-01-20T22:27:51.900Z,5.10
2023-01-20T22:30:21.694Z,5.16
2023-01-20T22:32:55.459Z,5.14
2023-01-20T22:35:26.082Z,5.12
2023-01-20T22:37:56.047Z,4.98
2023-01-20T22:40:25.207Z,4.98
2023-01-20T22:42:54.305Z,5.01
2023-01-20T22:45:23.605Z,5.01
2023-01-20T22:47:52.747Z,5.00
2023-01-20T22:50:24.046Z,5.02
2023-01-20T22:52:53.677Z,5.02
2023-01-20T23:07:08.915Z,5.05
2023-01-20T23:09:38.098Z,4.97
2023-01-20T23:12:07.251Z,4.96
2023-01-20T23:14:55.217Z,4.97
2023-01-20T23:17:23.830Z,4.93
2023-01-20T23:19:52.497Z,4.99
2023-01-20T23:22:21.418Z,4.95
2023-01-20T23:24:50.411Z,4.95
2023-01-20T23:27:18.918Z,4.91
2023-01-20T23:29:49.401Z,4.84
2023-01-20T23:32:18.151Z,4.81
2023-01-20T23:34:46.762Z,4.84
2023-01-20T23:37:16.764Z,4.85
2023-01-20T23:39:45.567Z,4.73
2023-01-20T23:42:14.262Z,4.70
2023-01-20T23:44:42.897Z,4.67
2023-01-20T23:47:12.174Z,4.68
2023-01-20T23:49:40.834Z,4.64
2023-01-20T23:52:09.846Z,4.67
2023-01-20T23:54:38.342Z,4.65
2023-01-20T23:57:07.869Z,4.72
2023-01-20T23:59:38.181Z,4.72
